Pajarito, New Mexico
Current Conditions -  °F | °C
As of 1:35 PM on Friday 28 Nov 2014 (Local Time) from KLAM Reporting Station
Clear Clear  
Wind Chill: 52°   Ceiling: Unl
Heat Index: 52°   Visibility: 10mi
Dew Point: 18°   Wind: 3mph
Humidity: 26%   Direction: 60°ENE
Pressure: 30.19"   Gusts: NA
Location:  35.9775°N, 106.158°W
Report Text: KLAM 282035Z AUTO 06003KT 10SM CLR 11/M08 A3019 RMK AO2 T01131077
Loading
Personal Weather Stations






























Interactive Weather Map New forecast layout! Learn more

10-Day Weather Forecast

Advertisements
Track Severe Weather on mobile